sensor_id;sensor_type;location;lat;lon;timestamp;P1;durP1;ratioP1;P2;durP2;ratioP2
4182;SDS011;2105;52.300;9.182;2022-10-19T00:01:07;16.27;;;12.90;;
4182;SDS011;2105;52.300;9.182;2022-10-19T00:03:36;19.70;;;13.33;;
4182;SDS011;2105;52.300;9.182;2022-10-19T00:06:11;20.90;;;13.00;;
4182;SDS011;2105;52.300;9.182;2022-10-19T00:08:39;26.50;;;13.40;;
4182;SDS011;2105;52.300;9.182;2022-10-19T00:11:06;14.27;;;12.97;;
4182;SDS011;2105;52.300;9.182;2022-10-19T00:13:34;14.80;;;13.10;;
4182;SDS011;2105;52.300;9.182;2022-10-19T00:16:05;14.33;;;12.80;;
4182;SDS011;2105;52.300;9.182;2022-10-19T00:18:33;19.47;;;13.30;;
4182;SDS011;2105;52.300;9.182;2022-10-19T00:21:03;20.90;;;12.93;;
4182;SDS011;2105;52.300;9.182;2022-10-19T00:23:31;18.03;;;12.90;;
4182;SDS011;2105;52.300;9.182;2022-10-19T00:25:58;14.80;;;13.20;;
4182;SDS011;2105;52.300;9.182;2022-10-19T00:28:25;16.97;;;12.97;;
4182;SDS011;2105;52.300;9.182;2022-10-19T00:30:52;17.27;;;13.27;;
4182;SDS011;2105;52.300;9.182;2022-10-19T00:33:21;17.03;;;13.13;;
4182;SDS011;2105;52.300;9.182;2022-10-19T00:35:48;17.27;;;13.30;;
4182;SDS011;2105;52.300;9.182;2022-10-19T00:38:17;14.33;;;13.00;;
4182;SDS011;2105;52.300;9.182;2022-10-19T00:40:45;18.83;;;12.90;;
4182;SDS011;2105;52.300;9.182;2022-10-19T00:43:13;17.83;;;12.47;;
4182;SDS011;2105;52.300;9.182;2022-10-19T00:45:41;16.03;;;12.63;;
4182;SDS011;2105;52.300;9.182;2022-10-19T00:48:08;21.43;;;12.30;;
4182;SDS011;2105;52.300;9.182;2022-10-19T00:50:39;22.73;;;12.90;;
4182;SDS011;2105;52.300;9.182;2022-10-19T00:53:07;26.10;;;13.23;;
4182;SDS011;2105;52.300;9.182;2022-10-19T00:55:35;20.33;;;12.40;;
4182;SDS011;2105;52.300;9.182;2022-10-19T00:58:02;18.00;;;11.90;;
4182;SDS011;2105;52.300;9.182;2022-10-19T01:00:29;24.60;;;11.57;;
4182;SDS011;2105;52.300;9.182;2022-10-19T01:02:58;17.40;;;11.87;;
4182;SDS011;2105;52.300;9.182;2022-10-19T01:05:26;20.20;;;12.00;;
4182;SDS011;2105;52.300;9.182;2022-10-19T01:07:55;14.93;;;11.00;;
4182;SDS011;2105;52.300;9.182;2022-10-19T01:10:23;15.87;;;11.53;;
4182;SDS011;2105;52.300;9.182;2022-10-19T01:13:09;21.00;;;11.57;;
4182;SDS011;2105;52.300;9.182;2022-10-19T01:15:44;12.67;;;11.30;;
4182;SDS011;2105;52.300;9.182;2022-10-19T01:18:19;14.07;;;11.70;;
4182;SDS011;2105;52.300;9.182;2022-10-19T01:20:56;27.43;;;12.00;;
4182;SDS011;2105;52.300;9.182;2022-10-19T01:32:45;18.93;;;11.57;;
4182;SDS011;2105;52.300;9.182;2022-10-19T01:35:19;16.63;;;11.70;;
4182;SDS011;2105;52.300;9.182;2022-10-19T01:37:54;15.00;;;11.10;;
4182;SDS011;2105;52.300;9.182;2022-10-19T01:40:31;12.97;;;11.37;;
4182;SDS011;2105;52.300;9.182;2022-10-19T01:43:08;14.97;;;11.33;;
4182;SDS011;2105;52.300;9.182;2022-10-19T01:45:43;15.80;;;11.40;;
4182;SDS011;2105;52.300;9.182;2022-10-19T01:48:16;19.50;;;11.50;;
4182;SDS011;2105;52.300;9.182;2022-10-19T01:50:49;13.07;;;11.43;;
4182;SDS011;2105;52.300;9.182;2022-10-19T01:53:19;16.83;;;11.50;;
4182;SDS011;2105;52.300;9.182;2022-10-19T01:55:48;16.90;;;11.50;;
4182;SDS011;2105;52.300;9.182;2022-10-19T01:58:17;17.23;;;11.37;;
4182;SDS011;2105;52.300;9.182;2022-10-19T02:00:49;12.73;;;11.40;;
4182;SDS011;2105;52.300;9.182;2022-10-19T02:03:19;15.03;;;12.47;;
4182;SDS011;2105;52.300;9.182;2022-10-19T02:05:47;17.60;;;11.80;;
4182;SDS011;2105;52.300;9.182;2022-10-19T02:08:18;20.50;;;12.30;;
4182;SDS011;2105;52.300;9.182;2022-10-19T02:10:48;22.43;;;12.03;;
4182;SDS011;2105;52.300;9.182;2022-10-19T02:13:15;18.43;;;12.43;;
4182;SDS011;2105;52.300;9.182;2022-10-19T02:15:46;15.53;;;11.80;;
4182;SDS011;2105;52.300;9.182;2022-10-19T02:18:17;17.93;;;12.50;;
4182;SDS011;2105;52.300;9.182;2022-10-19T02:20:48;14.40;;;12.47;;
4182;SDS011;2105;52.300;9.182;2022-10-19T02:23:15;17.77;;;12.60;;
4182;SDS011;2105;52.300;9.182;2022-10-19T02:25:45;15.33;;;12.57;;
4182;SDS011;2105;52.300;9.182;2022-10-19T02:28:12;13.73;;;12.17;;
4182;SDS011;2105;52.300;9.182;2022-10-19T02:30:39;21.40;;;12.70;;
4182;SDS011;2105;52.300;9.182;2022-10-19T02:33:07;13.60;;;12.20;;
4182;SDS011;2105;52.300;9.182;2022-10-19T02:35:36;19.50;;;12.77;;
4182;SDS011;2105;52.300;9.182;2022-10-19T02:38:03;15.90;;;12.50;;
4182;SDS011;2105;52.300;9.182;2022-10-19T02:40:32;20.23;;;13.80;;
4182;SDS011;2105;52.300;9.182;2022-10-19T02:43:04;14.53;;;12.07;;
4182;SDS011;2105;52.300;9.182;2022-10-19T02:45:36;14.50;;;12.97;;
4182;SDS011;2105;52.300;9.182;2022-10-19T02:48:10;18.30;;;12.93;;
4182;SDS011;2105;52.300;9.182;2022-10-19T02:50:42;17.10;;;12.80;;
4182;SDS011;2105;52.300;9.182;2022-10-19T02:53:09;23.57;;;12.30;;
4182;SDS011;2105;52.300;9.182;2022-10-19T02:55:36;22.03;;;13.00;;
4182;SDS011;2105;52.300;9.182;2022-10-19T02:58:02;14.40;;;12.70;;
4182;SDS011;2105;52.300;9.182;2022-10-19T03:00:29;15.87;;;12.70;;
4182;SDS011;2105;52.300;9.182;2022-10-19T03:02:56;14.50;;;13.10;;
4182;SDS011;2105;52.300;9.182;2022-10-19T03:05:24;18.60;;;12.90;;
4182;SDS011;2105;52.300;9.182;2022-10-19T03:07:51;19.90;;;13.00;;
4182;SDS011;2105;52.300;9.182;2022-10-19T03:10:17;17.80;;;12.60;;
4182;SDS011;2105;52.300;9.182;2022-10-19T03:12:44;17.77;;;12.80;;
4182;SDS011;2105;52.300;9.182;2022-10-19T03:15:13;18.07;;;12.73;;
4182;SDS011;2105;52.300;9.182;2022-10-19T03:17:40;29.77;;;13.00;;
4182;SDS011;2105;52.300;9.182;2022-10-19T03:20:07;16.83;;;12.67;;
4182;SDS011;2105;52.300;9.182;2022-10-19T03:22:36;15.33;;;13.17;;
4182;SDS011;2105;52.300;9.182;2022-10-19T03:25:03;19.07;;;12.77;;
4182;SDS011;2105;52.300;9.182;2022-10-19T03:27:30;24.27;;;12.80;;
4182;SDS011;2105;52.300;9.182;2022-10-19T03:29:57;22.07;;;12.83;;
4182;SDS011;2105;52.300;9.182;2022-10-19T03:32:24;15.60;;;12.50;;
4182;SDS011;2105;52.300;9.182;2022-10-19T03:34:50;16.37;;;12.97;;
4182;SDS011;2105;52.300;9.182;2022-10-19T03:37:17;14.30;;;13.00;;
4182;SDS011;2105;52.300;9.182;2022-10-19T03:39:46;19.37;;;13.40;;
4182;SDS011;2105;52.300;9.182;2022-10-19T03:42:13;16.70;;;13.10;;
4182;SDS011;2105;52.300;9.182;2022-10-19T03:44:40;14.53;;;13.03;;
4182;SDS011;2105;52.300;9.182;2022-10-19T03:47:06;16.40;;;13.17;;
4182;SDS011;2105;52.300;9.182;2022-10-19T03:49:33;20.47;;;13.00;;
4182;SDS011;2105;52.300;9.182;2022-10-19T03:52:00;17.30;;;12.50;;
4182;SDS011;2105;52.300;9.182;2022-10-19T03:54:26;18.40;;;12.93;;
4182;SDS011;2105;52.300;9.182;2022-10-19T03:56:54;18.33;;;13.17;;
4182;SDS011;2105;52.300;9.182;2022-10-19T03:59:21;17.50;;;13.47;;
4182;SDS011;2105;52.300;9.182;2022-10-19T04:01:48;18.37;;;13.43;;
4182;SDS011;2105;52.300;9.182;2022-10-19T04:04:15;14.90;;;12.93;;
4182;SDS011;2105;52.300;9.182;2022-10-19T04:06:44;15.97;;;12.70;;
4182;SDS011;2105;52.300;9.182;2022-10-19T04:09:12;21.00;;;13.47;;
4182;SDS011;2105;52.300;9.182;2022-10-19T04:11:41;14.60;;;12.57;;
4182;SDS011;2105;52.300;9.182;2022-10-19T04:14:10;14.20;;;12.80;;
4182;SDS011;2105;52.300;9.182;2022-10-19T04:16:37;14.40;;;13.20;;
4182;SDS011;2105;52.300;9.182;2022-10-19T04:19:04;14.03;;;12.70;;
4182;SDS011;2105;52.300;9.182;2022-10-19T04:21:31;17.73;;;13.10;;
4182;SDS011;2105;52.300;9.182;2022-10-19T04:24:00;13.83;;;12.47;;
4182;SDS011;2105;52.300;9.182;2022-10-19T04:26:28;15.20;;;13.20;;
4182;SDS011;2105;52.300;9.182;2022-10-19T04:28:55;14.90;;;13.40;;
4182;SDS011;2105;52.300;9.182;2022-10-19T04:31:24;14.90;;;13.00;;
4182;SDS011;2105;52.300;9.182;2022-10-19T04:33:51;16.43;;;13.53;;
4182;SDS011;2105;52.300;9.182;2022-10-19T04:36:19;13.80;;;12.60;;
4182;SDS011;2105;52.300;9.182;2022-10-19T04:38:46;14.73;;;13.00;;
4182;SDS011;2105;52.300;9.182;2022-10-19T04:41:13;17.47;;;13.27;;
4182;SDS011;2105;52.300;9.182;2022-10-19T04:43:41;15.20;;;13.67;;
4182;SDS011;2105;52.300;9.182;2022-10-19T04:46:10;17.30;;;13.43;;
4182;SDS011;2105;52.300;9.182;2022-10-19T04:48:39;14.87;;;13.40;;
4182;SDS011;2105;52.300;9.182;2022-10-19T04:51:07;13.80;;;12.80;;
4182;SDS011;2105;52.300;9.182;2022-10-19T04:53:35;14.70;;;13.30;;
4182;SDS011;2105;52.300;9.182;2022-10-19T04:56:03;14.73;;;13.20;;
4182;SDS011;2105;52.300;9.182;2022-10-19T04:58:31;21.00;;;12.73;;
4182;SDS011;2105;52.300;9.182;2022-10-19T05:01:05;13.47;;;12.17;;
4182;SDS011;2105;52.300;9.182;2022-10-19T05:03:32;14.53;;;13.03;;
4182;SDS011;2105;52.300;9.182;2022-10-19T05:06:00;16.33;;;13.33;;
4182;SDS011;2105;52.300;9.182;2022-10-19T05:08:28;17.33;;;13.90;;
4182;SDS011;2105;52.300;9.182;2022-10-19T05:10:59;15.97;;;13.70;;
4182;SDS011;2105;52.300;9.182;2022-10-19T05:13:27;16.00;;;13.60;;
4182;SDS011;2105;52.300;9.182;2022-10-19T05:15:54;14.43;;;13.23;;
4182;SDS011;2105;52.300;9.182;2022-10-19T05:18:22;15.67;;;13.90;;
4182;SDS011;2105;52.300;9.182;2022-10-19T05:20:49;14.73;;;13.53;;
4182;SDS011;2105;52.300;9.182;2022-10-19T05:23:17;19.63;;;14.37;;
4182;SDS011;2105;52.300;9.182;2022-10-19T05:25:44;21.73;;;14.20;;
4182;SDS011;2105;52.300;9.182;2022-10-19T05:28:10;16.00;;;14.30;;
4182;SDS011;2105;52.300;9.182;2022-10-19T05:30:37;15.80;;;14.30;;
4182;SDS011;2105;52.300;9.182;2022-10-19T05:33:05;16.27;;;14.10;;
4182;SDS011;2105;52.300;9.182;2022-10-19T05:35:32;15.50;;;13.90;;
4182;SDS011;2105;52.300;9.182;2022-10-19T05:37:59;15.23;;;13.70;;
4182;SDS011;2105;52.300;9.182;2022-10-19T05:40:27;19.83;;;14.10;;
4182;SDS011;2105;52.300;9.182;2022-10-19T05:42:55;15.40;;;14.00;;
4182;SDS011;2105;52.300;9.182;2022-10-19T05:45:21;16.03;;;14.10;;
4182;SDS011;2105;52.300;9.182;2022-10-19T05:47:48;15.90;;;14.50;;
4182;SDS011;2105;52.300;9.182;2022-10-19T05:50:15;16.07;;;14.10;;
4182;SDS011;2105;52.300;9.182;2022-10-19T05:52:41;16.00;;;13.70;;
4182;SDS011;2105;52.300;9.182;2022-10-19T05:55:08;15.87;;;14.00;;
4182;SDS011;2105;52.300;9.182;2022-10-19T05:57:36;20.97;;;13.57;;
4182;SDS011;2105;52.300;9.182;2022-10-19T06:00:03;17.73;;;14.57;;
4182;SDS011;2105;52.300;9.182;2022-10-19T06:02:30;19.50;;;14.20;;
4182;SDS011;2105;52.300;9.182;2022-10-19T06:04:57;17.70;;;13.50;;
4182;SDS011;2105;52.300;9.182;2022-10-19T06:07:25;15.60;;;13.63;;
4182;SDS011;2105;52.300;9.182;2022-10-19T06:09:53;18.60;;;12.80;;
4182;SDS011;2105;52.300;9.182;2022-10-19T06:12:21;17.77;;;12.90;;
4182;SDS011;2105;52.300;9.182;2022-10-19T06:14:50;16.73;;;12.80;;
4182;SDS011;2105;52.300;9.182;2022-10-19T06:17:16;21.87;;;13.10;;
4182;SDS011;2105;52.300;9.182;2022-10-19T06:19:43;15.80;;;12.60;;
4182;SDS011;2105;52.300;9.182;2022-10-19T06:22:10;14.80;;;13.07;;
4182;SDS011;2105;52.300;9.182;2022-10-19T06:24:37;15.60;;;12.83;;
4182;SDS011;2105;52.300;9.182;2022-10-19T06:27:03;17.03;;;12.80;;
4182;SDS011;2105;52.300;9.182;2022-10-19T06:29:31;14.00;;;12.60;;
4182;SDS011;2105;52.300;9.182;2022-10-19T06:31:59;16.53;;;13.07;;
4182;SDS011;2105;52.300;9.182;2022-10-19T06:34:25;15.07;;;13.50;;
4182;SDS011;2105;52.300;9.182;2022-10-19T06:36:52;19.00;;;14.23;;
4182;SDS011;2105;52.300;9.182;2022-10-19T06:39:19;22.23;;;14.17;;
4182;SDS011;2105;52.300;9.182;2022-10-19T06:41:46;19.00;;;13.97;;
4182;SDS011;2105;52.300;9.182;2022-10-19T06:44:13;16.10;;;14.47;;
4182;SDS011;2105;52.300;9.182;2022-10-19T06:46:39;14.67;;;13.27;;
4182;SDS011;2105;52.300;9.182;2022-10-19T06:49:10;15.53;;;13.17;;
4182;SDS011;2105;52.300;9.182;2022-10-19T06:51:38;18.83;;;13.63;;
4182;SDS011;2105;52.300;9.182;2022-10-19T06:54:06;15.40;;;13.63;;
4182;SDS011;2105;52.300;9.182;2022-10-19T06:56:33;15.27;;;13.87;;
4182;SDS011;2105;52.300;9.182;2022-10-19T06:58:59;14.20;;;13.00;;
4182;SDS011;2105;52.300;9.182;2022-10-19T07:01:27;14.43;;;12.73;;
4182;SDS011;2105;52.300;9.182;2022-10-19T07:03:54;21.20;;;12.73;;
4182;SDS011;2105;52.300;9.182;2022-10-19T07:06:22;15.67;;;14.00;;
4182;SDS011;2105;52.300;9.182;2022-10-19T07:08:49;14.90;;;13.57;;
4182;SDS011;2105;52.300;9.182;2022-10-19T07:11:19;14.80;;;13.20;;
4182;SDS011;2105;52.300;9.182;2022-10-19T07:13:47;21.10;;;13.53;;
4182;SDS011;2105;52.300;9.182;2022-10-19T07:16:14;15.90;;;13.37;;
4182;SDS011;2105;52.300;9.182;2022-10-19T07:18:42;16.63;;;13.70;;
4182;SDS011;2105;52.300;9.182;2022-10-19T07:21:10;15.47;;;13.90;;
4182;SDS011;2105;52.300;9.182;2022-10-19T07:23:41;21.13;;;13.27;;
4182;SDS011;2105;52.300;9.182;2022-10-19T07:26:10;16.80;;;13.77;;
4182;SDS011;2105;52.300;9.182;2022-10-19T07:28:38;16.87;;;13.10;;
4182;SDS011;2105;52.300;9.182;2022-10-19T07:31:06;18.47;;;14.93;;
4182;SDS011;2105;52.300;9.182;2022-10-19T07:33:34;24.33;;;14.30;;
4182;SDS011;2105;52.300;9.182;2022-10-19T07:36:02;18.27;;;14.20;;
4182;SDS011;2105;52.300;9.182;2022-10-19T07:38:31;20.60;;;14.90;;
4182;SDS011;2105;52.300;9.182;2022-10-19T07:41:00;20.27;;;14.30;;
4182;SDS011;2105;52.300;9.182;2022-10-19T07:43:28;20.23;;;15.00;;
4182;SDS011;2105;52.300;9.182;2022-10-19T07:45:56;18.07;;;15.80;;
4182;SDS011;2105;52.300;9.182;2022-10-19T07:48:23;26.90;;;14.83;;
4182;SDS011;2105;52.300;9.182;2022-10-19T07:50:50;21.47;;;14.97;;
4182;SDS011;2105;52.300;9.182;2022-10-19T07:53:17;16.17;;;14.67;;
4182;SDS011;2105;52.300;9.182;2022-10-19T07:55:44;18.80;;;16.00;;
4182;SDS011;2105;52.300;9.182;2022-10-19T07:58:12;24.17;;;14.70;;
4182;SDS011;2105;52.300;9.182;2022-10-19T08:00:39;18.20;;;14.70;;
4182;SDS011;2105;52.300;9.182;2022-10-19T08:03:06;17.80;;;14.77;;
4182;SDS011;2105;52.300;9.182;2022-10-19T08:05:33;16.33;;;14.50;;
4182;SDS011;2105;52.300;9.182;2022-10-19T08:08:01;16.37;;;14.67;;
4182;SDS011;2105;52.300;9.182;2022-10-19T08:10:28;17.50;;;14.60;;
4182;SDS011;2105;52.300;9.182;2022-10-19T08:12:55;20.80;;;14.30;;
4182;SDS011;2105;52.300;9.182;2022-10-19T08:15:23;23.83;;;14.70;;
4182;SDS011;2105;52.300;9.182;2022-10-19T08:17:50;20.47;;;15.10;;
4182;SDS011;2105;52.300;9.182;2022-10-19T08:20:17;19.03;;;14.50;;
4182;SDS011;2105;52.300;9.182;2022-10-19T08:22:44;16.63;;;14.50;;
4182;SDS011;2105;52.300;9.182;2022-10-19T08:25:12;20.77;;;14.90;;
4182;SDS011;2105;52.300;9.182;2022-10-19T08:27:39;16.97;;;14.80;;
4182;SDS011;2105;52.300;9.182;2022-10-19T08:30:06;26.30;;;14.73;;
4182;SDS011;2105;52.300;9.182;2022-10-19T08:32:34;20.70;;;14.83;;
4182;SDS011;2105;52.300;9.182;2022-10-19T08:35:01;17.67;;;14.70;;
4182;SDS011;2105;52.300;9.182;2022-10-19T08:37:28;18.63;;;15.37;;
4182;SDS011;2105;52.300;9.182;2022-10-19T08:39:54;16.73;;;15.23;;
4182;SDS011;2105;52.300;9.182;2022-10-19T08:42:23;20.23;;;14.93;;
4182;SDS011;2105;52.300;9.182;2022-10-19T08:45:00;16.73;;;15.03;;
4182;SDS011;2105;52.300;9.182;2022-10-19T08:47:39;18.20;;;14.80;;
4182;SDS011;2105;52.300;9.182;2022-10-19T08:50:17;17.03;;;14.53;;
4182;SDS011;2105;52.300;9.182;2022-10-19T08:52:46;20.30;;;15.60;;
4182;SDS011;2105;52.300;9.182;2022-10-19T08:55:17;24.17;;;15.87;;
4182;SDS011;2105;52.300;9.182;2022-10-19T08:57:51;17.63;;;15.80;;
4182;SDS011;2105;52.300;9.182;2022-10-19T09:00:29;17.67;;;15.83;;
4182;SDS011;2105;52.300;9.182;2022-10-19T09:03:14;18.50;;;16.57;;
4182;SDS011;2105;52.300;9.182;2022-10-19T09:05:48;17.93;;;15.97;;
4182;SDS011;2105;52.300;9.182;2022-10-19T09:08:27;22.10;;;15.67;;
4182;SDS011;2105;52.300;9.182;2022-10-19T09:10:53;17.60;;;15.80;;
4182;SDS011;2105;52.300;9.182;2022-10-19T09:13:32;22.53;;;16.90;;
4182;SDS011;2105;52.300;9.182;2022-10-19T09:16:02;24.03;;;15.83;;
4182;SDS011;2105;52.300;9.182;2022-10-19T09:18:32;20.50;;;15.83;;
4182;SDS011;2105;52.300;9.182;2022-10-19T09:21:01;24.20;;;16.07;;
4182;SDS011;2105;52.300;9.182;2022-10-19T09:23:32;17.40;;;15.60;;
4182;SDS011;2105;52.300;9.182;2022-10-19T09:26:04;17.03;;;15.03;;
4182;SDS011;2105;52.300;9.182;2022-10-19T09:28:41;18.83;;;15.60;;
4182;SDS011;2105;52.300;9.182;2022-10-19T09:31:13;18.13;;;15.30;;
4182;SDS011;2105;52.300;9.182;2022-10-19T09:33:47;23.07;;;16.07;;
4182;SDS011;2105;52.300;9.182;2022-10-19T09:36:19;16.47;;;15.07;;
4182;SDS011;2105;52.300;9.182;2022-10-19T09:38:47;18.20;;;15.47;;
4182;SDS011;2105;52.300;9.182;2022-10-19T09:41:16;17.40;;;15.60;;
4182;SDS011;2105;52.300;9.182;2022-10-19T09:43:46;17.30;;;15.50;;
4182;SDS011;2105;52.300;9.182;2022-10-19T09:46:28;17.10;;;15.40;;
4182;SDS011;2105;52.300;9.182;2022-10-19T09:49:02;16.50;;;14.90;;
4182;SDS011;2105;52.300;9.182;2022-10-19T09:51:37;24.03;;;15.70;;
4182;SDS011;2105;52.300;9.182;2022-10-19T09:54:20;19.17;;;15.50;;
4182;SDS011;2105;52.300;9.182;2022-10-19T09:56:51;16.20;;;14.67;;
4182;SDS011;2105;52.300;9.182;2022-10-19T09:59:19;16.90;;;15.10;;
4182;SDS011;2105;52.300;9.182;2022-10-19T10:01:48;18.80;;;15.17;;
4182;SDS011;2105;52.300;9.182;2022-10-19T10:04:26;17.53;;;14.50;;
4182;SDS011;2105;52.300;9.182;2022-10-19T10:06:54;20.03;;;14.70;;
4182;SDS011;2105;52.300;9.182;2022-10-19T10:09:24;18.20;;;14.47;;
4182;SDS011;2105;52.300;9.182;2022-10-19T10:11:53;17.03;;;15.00;;
4182;SDS011;2105;52.300;9.182;2022-10-19T10:14:26;15.57;;;14.33;;
4182;SDS011;2105;52.300;9.182;2022-10-19T10:16:54;16.70;;;14.83;;
4182;SDS011;2105;52.300;9.182;2022-10-19T10:19:26;18.00;;;16.17;;
4182;SDS011;2105;52.300;9.182;2022-10-19T10:21:54;17.07;;;15.10;;
4182;SDS011;2105;52.300;9.182;2022-10-19T10:24:23;20.03;;;15.20;;
4182;SDS011;2105;52.300;9.182;2022-10-19T10:26:52;16.83;;;15.03;;
4182;SDS011;2105;52.300;9.182;2022-10-19T10:29:20;18.50;;;14.90;;
4182;SDS011;2105;52.300;9.182;2022-10-19T10:31:49;19.40;;;14.73;;
4182;SDS011;2105;52.300;9.182;2022-10-19T10:34:21;16.03;;;14.37;;
4182;SDS011;2105;52.300;9.182;2022-10-19T10:37:02;16.17;;;14.57;;
4182;SDS011;2105;52.300;9.182;2022-10-19T10:39:31;15.90;;;14.50;;
4182;SDS011;2105;52.300;9.182;2022-10-19T10:42:05;26.37;;;17.57;;
4182;SDS011;2105;52.300;9.182;2022-10-19T10:44:35;24.07;;;14.97;;
4182;SDS011;2105;52.300;9.182;2022-10-19T10:47:03;17.37;;;15.60;;
4182;SDS011;2105;52.300;9.182;2022-10-19T10:49:39;19.73;;;14.70;;
4182;SDS011;2105;52.300;9.182;2022-10-19T10:52:08;22.17;;;15.17;;
4182;SDS011;2105;52.300;9.182;2022-10-19T10:54:37;18.13;;;15.07;;
4182;SDS011;2105;52.300;9.182;2022-10-19T10:57:07;23.83;;;15.73;;
4182;SDS011;2105;52.300;9.182;2022-10-19T10:59:38;17.80;;;15.13;;
4182;SDS011;2105;52.300;9.182;2022-10-19T11:02:17;17.17;;;15.60;;
4182;SDS011;2105;52.300;9.182;2022-10-19T11:04:53;16.43;;;14.90;;
4182;SDS011;2105;52.300;9.182;2022-10-19T11:07:23;19.30;;;15.80;;
4182;SDS011;2105;52.300;9.182;2022-10-19T11:09:53;23.50;;;16.20;;
4182;SDS011;2105;52.300;9.182;2022-10-19T11:12:29;17.50;;;15.83;;
4182;SDS011;2105;52.300;9.182;2022-10-19T11:15:00;19.00;;;17.00;;
4182;SDS011;2105;52.300;9.182;2022-10-19T11:17:35;21.00;;;17.30;;
4182;SDS011;2105;52.300;9.182;2022-10-19T11:20:06;26.93;;;17.50;;
4182;SDS011;2105;52.300;9.182;2022-10-19T11:22:42;20.13;;;16.23;;
4182;SDS011;2105;52.300;9.182;2022-10-19T11:25:17;18.13;;;16.23;;
4182;SDS011;2105;52.300;9.182;2022-10-19T11:27:54;17.70;;;15.80;;
4182;SDS011;2105;52.300;9.182;2022-10-19T11:30:30;17.77;;;16.07;;
4182;SDS011;2105;52.300;9.182;2022-10-19T11:33:03;18.27;;;16.43;;
4182;SDS011;2105;52.300;9.182;2022-10-19T11:35:40;18.37;;;16.23;;
4182;SDS011;2105;52.300;9.182;2022-10-19T11:38:26;18.13;;;16.30;;
4182;SDS011;2105;52.300;9.182;2022-10-19T11:41:03;17.60;;;15.90;;
4182;SDS011;2105;52.300;9.182;2022-10-19T11:43:39;18.00;;;16.40;;
4182;SDS011;2105;52.300;9.182;2022-10-19T11:46:13;17.90;;;16.03;;
4182;SDS011;2105;52.300;9.182;2022-10-19T11:48:53;19.93;;;16.50;;
4182;SDS011;2105;52.300;9.182;2022-10-19T11:51:36;17.20;;;15.37;;
4182;SDS011;2105;52.300;9.182;2022-10-19T11:54:21;16.27;;;14.80;;
4182;SDS011;2105;52.300;9.182;2022-10-19T11:56:56;19.77;;;14.90;;
4182;SDS011;2105;52.300;9.182;2022-10-19T11:59:30;16.70;;;15.10;;
4182;SDS011;2105;52.300;9.182;2022-10-19T12:02:12;17.00;;;15.20;;
4182;SDS011;2105;52.300;9.182;2022-10-19T12:05:04;16.40;;;15.03;;
4182;SDS011;2105;52.300;9.182;2022-10-19T12:07:42;17.33;;;15.63;;
4182;SDS011;2105;52.300;9.182;2022-10-19T12:10:19;16.40;;;14.90;;
4182;SDS011;2105;52.300;9.182;2022-10-19T12:12:54;17.80;;;15.10;;
4182;SDS011;2105;52.300;9.182;2022-10-19T12:15:25;23.63;;;15.97;;
4182;SDS011;2105;52.300;9.182;2022-10-19T12:17:56;16.60;;;15.00;;
4182;SDS011;2105;52.300;9.182;2022-10-19T12:26:19;16.93;;;15.23;;
4182;SDS011;2105;52.300;9.182;2022-10-19T12:28:48;16.73;;;14.80;;
4182;SDS011;2105;52.300;9.182;2022-10-19T12:31:16;17.07;;;14.70;;
4182;SDS011;2105;52.300;9.182;2022-10-19T12:33:44;15.57;;;14.10;;
4182;SDS011;2105;52.300;9.182;2022-10-19T12:36:20;17.90;;;14.37;;
4182;SDS011;2105;52.300;9.182;2022-10-19T12:38:54;16.30;;;14.40;;
4182;SDS011;2105;52.300;9.182;2022-10-19T12:41:28;15.97;;;14.57;;
4182;SDS011;2105;52.300;9.182;2022-10-19T12:44:02;17.80;;;16.30;;
4182;SDS011;2105;52.300;9.182;2022-10-19T12:46:43;15.70;;;14.30;;
4182;SDS011;2105;52.300;9.182;2022-10-19T12:55:32;14.93;;;13.63;;
4182;SDS011;2105;52.300;9.182;2022-10-19T12:58:02;15.70;;;14.17;;
4182;SDS011;2105;52.300;9.182;2022-10-19T13:00:31;16.10;;;14.50;;
4182;SDS011;2105;52.300;9.182;2022-10-19T13:03:01;15.00;;;13.80;;
4182;SDS011;2105;52.300;9.182;2022-10-19T13:05:31;15.57;;;14.27;;
4182;SDS011;2105;52.300;9.182;2022-10-19T13:07:59;14.57;;;13.40;;
4182;SDS011;2105;52.300;9.182;2022-10-19T13:10:27;16.93;;;14.63;;
4182;SDS011;2105;52.300;9.182;2022-10-19T13:12:56;17.87;;;14.67;;
4182;SDS011;2105;52.300;9.182;2022-10-19T13:21:49;17.23;;;15.63;;
4182;SDS011;2105;52.300;9.182;2022-10-19T13:24:35;20.53;;;15.50;;
4182;SDS011;2105;52.300;9.182;2022-10-19T13:29:56;20.13;;;16.40;;
4182;SDS011;2105;52.300;9.182;2022-10-19T13:32:43;17.60;;;15.33;;
4182;SDS011;2105;52.300;9.182;2022-10-19T13:35:20;15.63;;;14.13;;
4182;SDS011;2105;52.300;9.182;2022-10-19T13:41:07;15.50;;;14.20;;
4182;SDS011;2105;52.300;9.182;2022-10-19T13:43:39;16.00;;;13.80;;
4182;SDS011;2105;52.300;9.182;2022-10-19T13:46:17;15.43;;;14.03;;
4182;SDS011;2105;52.300;9.182;2022-10-19T13:48:58;15.57;;;13.97;;
4182;SDS011;2105;52.300;9.182;2022-10-19T13:51:35;17.87;;;14.10;;
4182;SDS011;2105;52.300;9.182;2022-10-19T13:54:18;14.80;;;13.30;;
4182;SDS011;2105;52.300;9.182;2022-10-19T13:56:58;15.43;;;14.07;;
4182;SDS011;2105;52.300;9.182;2022-10-19T14:02:42;13.90;;;12.90;;
4182;SDS011;2105;52.300;9.182;2022-10-19T14:05:30;15.30;;;13.90;;
4182;SDS011;2105;52.300;9.182;2022-10-19T14:08:32;17.70;;;14.27;;
4182;SDS011;2105;52.300;9.182;2022-10-19T14:11:11;14.53;;;13.33;;
4182;SDS011;2105;52.300;9.182;2022-10-19T14:13:40;15.63;;;13.93;;
4182;SDS011;2105;52.300;9.182;2022-10-19T14:16:14;15.70;;;14.10;;
4182;SDS011;2105;52.300;9.182;2022-10-19T14:18:51;15.67;;;13.90;;
4182;SDS011;2105;52.300;9.182;2022-10-19T14:21:29;17.37;;;14.20;;
4182;SDS011;2105;52.300;9.182;2022-10-19T14:23:57;15.60;;;14.03;;
4182;SDS011;2105;52.300;9.182;2022-10-19T14:26:24;16.03;;;14.50;;
4182;SDS011;2105;52.300;9.182;2022-10-19T14:28:55;15.77;;;14.27;;
4182;SDS011;2105;52.300;9.182;2022-10-19T14:31:24;15.70;;;14.20;;
4182;SDS011;2105;52.300;9.182;2022-10-19T14:34:03;15.20;;;13.90;;
4182;SDS011;2105;52.300;9.182;2022-10-19T14:36:36;15.30;;;13.80;;
4182;SDS011;2105;52.300;9.182;2022-10-19T14:39:04;15.00;;;13.70;;
4182;SDS011;2105;52.300;9.182;2022-10-19T14:41:33;18.10;;;14.10;;
4182;SDS011;2105;52.300;9.182;2022-10-19T14:44:01;15.37;;;14.10;;
4182;SDS011;2105;52.300;9.182;2022-10-19T14:46:53;15.07;;;13.97;;
4182;SDS011;2105;52.300;9.182;2022-10-19T14:49:21;15.70;;;14.20;;
4182;SDS011;2105;52.300;9.182;2022-10-19T14:51:49;15.17;;;14.03;;
4182;SDS011;2105;52.300;9.182;2022-10-19T14:54:21;15.50;;;13.93;;
4182;SDS011;2105;52.300;9.182;2022-10-19T14:56:53;15.87;;;14.17;;
4182;SDS011;2105;52.300;9.182;2022-10-19T14:59:24;15.50;;;14.10;;
4182;SDS011;2105;52.300;9.182;2022-10-19T15:01:55;15.77;;;14.00;;
4182;SDS011;2105;52.300;9.182;2022-10-19T15:04:25;18.80;;;14.83;;
4182;SDS011;2105;52.300;9.182;2022-10-19T15:06:56;19.33;;;14.50;;
4182;SDS011;2105;52.300;9.182;2022-10-19T15:09:24;15.70;;;14.40;;
4182;SDS011;2105;52.300;9.182;2022-10-19T15:11:53;15.53;;;14.10;;
4182;SDS011;2105;52.300;9.182;2022-10-19T15:14:25;16.80;;;14.07;;
4182;SDS011;2105;52.300;9.182;2022-10-19T15:16:56;15.73;;;14.33;;
4182;SDS011;2105;52.300;9.182;2022-10-19T15:19:25;18.53;;;14.70;;
4182;SDS011;2105;52.300;9.182;2022-10-19T15:24:55;18.13;;;13.90;;
4182;SDS011;2105;52.300;9.182;2022-10-19T15:27:28;15.83;;;14.40;;
4182;SDS011;2105;52.300;9.182;2022-10-19T15:29:58;15.40;;;13.97;;
4182;SDS011;2105;52.300;9.182;2022-10-19T15:32:28;19.00;;;14.40;;
4182;SDS011;2105;52.300;9.182;2022-10-19T15:34:57;16.07;;;14.27;;
4182;SDS011;2105;52.300;9.182;2022-10-19T15:37:24;19.73;;;14.37;;
4182;SDS011;2105;52.300;9.182;2022-10-19T15:39:51;16.43;;;14.00;;
4182;SDS011;2105;52.300;9.182;2022-10-19T15:42:28;15.07;;;13.60;;
4182;SDS011;2105;52.300;9.182;2022-10-19T15:44:59;21.47;;;14.20;;
4182;SDS011;2105;52.300;9.182;2022-10-19T15:47:26;16.07;;;14.20;;